26 de septiembre de 2022

Hora Código Tiempo Temp. Visibilidad Cielo nuboso Viento METAR/SPECI
12:00
V
25 °C 10 km+ - 120° 120° 16 kt METAR FIMP 260800Z 12016KT 9999 FEW020 25/13 Q1024
11:00
V
25 °C 10 km+ - 120° 120° 16 kt METAR FIMP 260700Z 12016KT 9999 FEW018 25/15 Q1025
10:00
M
24 °C 10 km+ 1.500 ft 100° 100° 20 kt METAR FIMP 260600Z 10020KT 9999 BKN015 24/18 Q1025
09:00
M
23 °C 10 km+ 1.500 ft 090° 090° 20 kt METAR FIMP 260500Z 09020KT 9999 VCSH BKN015 SCT050 23/18 Q1025
08:00
V
21 °C 8 km 5.000 ft 090° 090° 16 kt METAR FIMP 260400Z 09016KT 8000 VCSH FEW008 SCT014 BKN050 21/19 Q1025
07:00
V
21 °C 8 km - 110° 110° 14 kt METAR FIMP 260300Z 11014KT 8000 VCSH FEW009 SCT015 21/19 Q1024
06:00
V
20 °C 8 km - 100° 100° 14 kt METAR FIMP 260200Z 10014KT 8000 VCSH FEW009 SCT015 SCT050 20/19 Q1023
05:00
V
20 °C 10 km+ - 110° 110° 6 kt METAR FIMP 260100Z 11006KT 9999 VCSH SCT017 20/19 Q1023
04:00
V
21 °C 10 km+ - 100° 100° 7 kt METAR FIMP 260000Z 10007KT 9999 FEW018 21/18 Q1022
03:00
V
21 °C 10 km+ - 090° 090° 8 kt METAR FIMP 252300Z 09008KT 9999 FEW018 21/18 Q1022
02:00
V
21 °C 10 km+ - 090° 090° 7 kt METAR FIMP 252200Z 09007KT 9999 SCT017 21/18 Q1023
01:00
M
21 °C 10 km+ 1.600 ft 090° 090° 11 kt METAR FIMP 252100Z 09011KT 9999 BKN016 21/18 Q1023
00:00
V
21 °C 10 km+ - 110° 110° 12 kt METAR FIMP 252000Z 11012KT 9999 VCSH SCT016 21/18 Q1023

25 de septiembre de 2022

Hora Código Tiempo Temp. Visibilidad Cielo nuboso Viento METAR/SPECI
23:00
V
22 °C 10 km+ - 120° 120° 14 kt METAR FIMP 251900Z 12014KT 9999 VCSH SCT016 22/18 Q1024
22:00
V
22 °C 10 km+ - 120° 120° 11 kt METAR FIMP 251800Z 12011KT 9999 SCT018 22/17 Q1024
21:00
V
22 °C 10 km+ - 120° 120° 14 kt METAR FIMP 251700Z 12014KT 9999 SCT018 22/17 Q1024
20:00
V
22 °C 10 km+ - 110° 110° 11 kt METAR FIMP 251600Z 11011KT 9999 SCT018 22/17 Q1023
19:00
V
22 °C 10 km+ - 110° 110° 11 kt METAR FIMP 251500Z 11011KT 9999 SCT018 22/17 Q1022
18:00
V
22 °C 10 km+ - 120° 120° 12 kt METAR FIMP 251400Z 12012KT 9999 SCT017 22/17 Q1021
17:00
M
23 °C 10 km+ 1.800 ft 120° 120° 12 kt METAR FIMP 251300Z 12012KT 9999 BKN018 23/16 Q1021
16:00
M
24 °C 10 km+ 1.800 ft 110° 110° 12 kt METAR FIMP 251200Z 11012KT 9999 BKN018 24/17 Q1021
15:00
V
25 °C 10 km+ - 110° 110° 11 kt METAR FIMP 251100Z 11011KT 9999 SCT019 25/17 Q1021
14:00
V
25 °C 10 km+ - 110° 110° 11 kt METAR FIMP 251000Z 11011KT 9999 SCT017 25/15 Q1021
13:00
V
25 °C 10 km+ - 110° 110° 13 kt METAR FIMP 250900Z 11013KT 9999 SCT017 25/17 Q1022
12:00
M
25 °C 10 km+ 1.700 ft 120° 120° 13 kt METAR FIMP 250800Z 12013KT 9999 BKN017 25/17 Q1023
11:00
M
24 °C 10 km+ 1.700 ft 110° 110° 12 kt METAR FIMP 250700Z 11012KT 9999 BKN017 24/17 Q1023
10:00
V
24 °C 10 km+ - 110° 110° 14 kt METAR FIMP 250600Z 11014KT 9999 SCT018 24/16 Q1023
09:00
V
24 °C 10 km+ - 110° 110° 13 kt METAR FIMP 250500Z 11013KT 9999 SCT018 24/16 Q1023
08:00
V
23 °C 10 km+ - 120° 120° 13 kt METAR FIMP 250400Z 12013KT 9999 SCT017 23/17 Q1023
07:00
V
22 °C 10 km+ - 120° 120° 10 kt METAR FIMP 250300Z 12010KT 9999 SCT017 22/16 Q1023
06:00
V
21 °C 10 km+ - 120° 120° 10 kt METAR FIMP 250200Z 12010KT 9999 SCT017 21/16 Q1022
05:00
V
21 °C 10 km+ - 120° 120° 10 kt METAR FIMP 250100Z 12010KT 9999 SCT017 21/16 Q1022
04:00
V
21 °C 10 km+ - 120° 120° 12 kt METAR FIMP 250000Z 12012KT 9999 SCT017 21/16 Q1021
03:00
V
21 °C 10 km+ - 120° 120° 12 kt METAR FIMP 242300Z 12012KT 9999 SCT017 21/16 Q1022
02:00
V
21 °C 10 km+ - 110° 110° 13 kt METAR FIMP 242200Z 11013KT 9999 SCT017 21/17 Q1022
01:00
V
21 °C 10 km+ - 100° 100° 10 kt METAR FIMP 242100Z 10010KT 9999 SCT017 21/17 Q1022
00:00
V
21 °C 10 km+ - 110° 110° 13 kt METAR FIMP 242000Z 11013KT 9999 SCT017 21/17 Q1023

24 de septiembre de 2022

Hora Código Tiempo Temp. Visibilidad Cielo nuboso Viento METAR/SPECI
23:00
V
22 °C 10 km+ - 110° 110° 12 kt METAR FIMP 241900Z 11012KT 9999 VCSH SCT016 22/17 Q1023
22:00
M
22 °C 10 km+ 1.600 ft 110° 110° 12 kt METAR FIMP 241800Z 11012KT 9999 VCSH BKN016 22/17 Q1024
21:00
M
22 °C 10 km+ 1.600 ft 120° 120° 15 kt METAR FIMP 241700Z 12015KT 9999 VCSH BKN016 22/17 Q1023
20:00
V
22 °C 10 km+ - 100° 100° 15 kt METAR FIMP 241600Z 10015KT 9999 VCSH SCT016 22/18 Q1023
19:00
V
22 °C 10 km+ - 100° 100° 11 kt METAR FIMP 241500Z 10011KT 9999 VCSH FEW010 SCT015 22/18 Q1023
18:00
M
22 °C 5 km 1.500 ft 110° 110° 12 kt METAR FIMP 241400Z 11012KT 5000 VCSH FEW008 BKN015 22/19 Q1022
17:00
V
22 °C 8 km 5.000 ft 110° 110° 16 kt METAR FIMP 241300Z 11016KT 8000 VCSH FEW010 SCT015 BKN050 22/19 Q1021
16:00
V
23 °C 10 km+ - 120° 120° 15 kt METAR FIMP 241200Z 12015KT 9999 VCSH FEW010 SCT015 23/18 Q1021
15:00
M
23 °C 8 km 1.500 ft 120° 120° 14 - 24 kt METAR FIMP 241100Z 12014G24KT 8000 VCSH FEW010 BKN015 23/19 Q1021
14:00
M
24 °C 8 km 1.500 ft 120° 120° 14 kt METAR FIMP 241000Z 12014KT 8000 VCSH BKN015 24/18 Q1021
13:00
V
23 °C 10 km+ - 120° 120° 13 kt METAR FIMP 240900Z 12013KT 9999 VCSH SCT016 23/20 Q1022
Datos más antiguos

Nosotros y terceros seguimos tu comportamiento en Internet en nuestro sitio web con cookies. Si continúas, asumimos que estás de acuerdo con nuestra política de cookies. Más información